Time;durP1;ratioP1;P1;durP2;ratioP2;P2;SDS_P1;SDS_P2;PMS_P1;PMS_P2;Temp;Humidity;BMP_temperature;BMP_pressure;BME280_temperature;BME280_humidity;BME280_pressure;Samples;Min_cycle;Max_cycle;Signal;HPM_P1;HPM_P2
2022/04/29 00:00:30;;;;;;;13.95;9.40;;;;;;;;;;5096419;28;20023;-85
2022/04/29 00:02:55;;;;;;;14.50;10.27;;;;;;;;;;5097078;28;20023;-86
2022/04/29 00:05:21;;;;;;;15.13;9.60;;;;;;;;;;5096809;28;20027;-84
2022/04/29 00:07:46;;;;;;;15.45;9.60;;;;;;;;;;5096768;28;20079;-87
2022/04/29 00:10:14;;;;;;;13.77;9.70;;;;;;;;;;5114999;28;20024;-87
2022/04/29 00:12:46;;;;;;;14.98;8.75;;;;;;;;;;5096634;28;20024;-87
2022/04/29 00:15:13;;;;;;;15.90;10.20;;;;;;;;;;5096421;28;20122;-86
2022/04/29 00:17:39;;;;;;;16.27;10.27;;;;;;;;;;5096357;28;20593;-87
2022/04/29 00:20:06;;;;;;;15.95;9.70;;;;;;;;;;5096649;28;20056;-89
2022/04/29 00:22:34;;;;;;;12.25;8.52;;;;;;;;;;5115071;28;20027;-87
2022/04/29 00:24:59;;;;;;;12.63;8.85;;;;;;;;;;5096186;28;20471;-88
2022/04/29 00:27:25;;;;;;;15.82;9.98;;;;;;;;;;5114448;28;20035;-86
2022/04/29 00:29:50;;;;;;;13.68;8.63;;;;;;;;;;5095947;28;20505;-87
2022/04/29 00:32:16;;;;;;;13.10;8.70;;;;;;;;;;5096148;28;20040;-88
2022/04/29 00:34:41;;;;;;;14.05;9.20;;;;;;;;;;5096118;28;20391;-85
2022/04/29 00:37:07;;;;;;;16.05;9.88;;;;;;;;;;5114252;28;20016;-86
2022/04/29 00:39:33;;;;;;;13.10;8.88;;;;;;;;;;5095511;28;20147;-87
2022/04/29 00:41:59;;;;;;;10.88;8.30;;;;;;;;;;5095654;28;20027;-85
2022/04/29 00:44:24;;;;;;;14.25;9.63;;;;;;;;;;5114274;28;20031;-84
2022/04/29 00:46:51;;;;;;;12.95;9.10;;;;;;;;;;5114320;28;20050;-86
2022/04/29 00:49:18;;;;;;;11.40;8.30;;;;;;;;;;5114301;28;20055;-87
2022/04/29 00:51:47;;;;;;;12.40;8.63;;;;;;;;;;5095648;28;20019;-87
2022/04/29 00:54:26;;;;;;;12.73;8.85;;;;;;;;;;5095652;28;20047;-86
2022/04/29 00:56:53;;;;;;;13.82;9.07;;;;;;;;;;5095689;28;20118;-85
2022/04/29 00:59:28;;;;;;;14.38;9.30;;;;;;;;;;5095362;28;20023;-86
2022/04/29 01:01:55;;;;;;;14.82;9.63;;;;;;;;;;5093349;28;20394;-85
2022/04/29 01:04:24;;;;;;;14.40;10.40;;;;;;;;;;5113462;28;20032;-86
2022/04/29 01:06:50;;;;;;;16.10;9.95;;;;;;;;;;5113742;28;21848;-86
2022/04/29 01:09:15;;;;;;;13.82;9.98;;;;;;;;;;5112145;28;20031;-89
2022/04/29 01:11:41;;;;;;;13.90;8.73;;;;;;;;;;5094454;28;20103;-85
2022/04/29 01:14:09;;;;;;;13.65;9.85;;;;;;;;;;5113725;28;20035;-88
2022/04/29 01:16:34;;;;;;;13.07;9.60;;;;;;;;;;5112323;28;20043;-87
2022/04/29 01:19:00;;;;;;;14.60;9.43;;;;;;;;;;5113705;28;20019;-85
2022/04/29 01:21:26;;;;;;;13.40;8.85;;;;;;;;;;5095296;28;21546;-85
2022/04/29 01:23:51;;;;;;;13.45;9.00;;;;;;;;;;5092270;28;20036;-85
2022/04/29 01:26:17;;;;;;;14.60;8.82;;;;;;;;;;5095093;28;20035;-85
2022/04/29 01:28:46;;;;;;;11.85;8.63;;;;;;;;;;5113155;28;20467;-84
2022/04/29 01:31:14;;;;;;;12.18;8.00;;;;;;;;;;5113377;28;20035;-85
2022/04/29 01:33:45;;;;;;;13.73;8.82;;;;;;;;;;5093701;28;20032;-84
2022/04/29 01:36:10;;;;;;;13.10;8.05;;;;;;;;;;5094991;28;20053;-87
2022/04/29 01:38:37;;;;;;;11.38;7.97;;;;;;;;;;5091275;28;20125;-85
2022/04/29 01:41:05;;;;;;;11.95;8.27;;;;;;;;;;5091294;28;20020;-86
2022/04/29 01:43:31;;;;;;;11.98;8.20;;;;;;;;;;5091494;28;20035;-85
2022/04/29 01:45:56;;;;;;;12.40;8.27;;;;;;;;;;5091087;28;20031;-85
2022/04/29 01:48:24;;;;;;;11.15;7.53;;;;;;;;;;5091009;28;20387;-84
2022/04/29 01:50:49;;;;;;;13.23;9.15;;;;;;;;;;5091934;28;20028;-85
2022/04/29 01:53:15;;;;;;;13.18;8.57;;;;;;;;;;5092135;28;20438;-85
2022/04/29 01:55:40;;;;;;;13.45;7.57;;;;;;;;;;5089550;28;20430;-86
2022/04/29 01:58:06;;;;;;;16.00;8.98;;;;;;;;;;5101193;28;20061;-85
2022/04/29 02:00:32;;;;;;;14.82;9.73;;;;;;;;;;5090983;28;20408;-87
2022/04/29 02:02:57;;;;;;;14.05;9.20;;;;;;;;;;5089766;28;20020;-86
2022/04/29 02:05:23;;;;;;;15.18;9.93;;;;;;;;;;5090543;28;20034;-84
2022/04/29 02:07:48;;;;;;;13.95;9.20;;;;;;;;;;5091500;28;20032;-85
2022/04/29 02:10:14;;;;;;;13.15;8.82;;;;;;;;;;5091551;28;20043;-85
2022/04/29 02:12:40;;;;;;;13.13;8.82;;;;;;;;;;5091343;28;20085;-84
2022/04/29 02:15:06;;;;;;;13.75;8.68;;;;;;;;;;5091330;28;20024;-84
2022/04/29 02:17:32;;;;;;;17.40;8.70;;;;;;;;;;5089658;28;20028;-83
2022/04/29 02:19:57;;;;;;;13.65;9.57;;;;;;;;;;5091924;28;20035;-87
2022/04/29 02:22:23;;;;;;;12.95;8.75;;;;;;;;;;5091304;28;20024;-86
2022/04/29 02:24:48;;;;;;;13.48;8.60;;;;;;;;;;5089900;28;20078;-85
2022/04/29 02:27:19;;;;;;;13.20;8.68;;;;;;;;;;5090365;28;20028;-84
2022/04/29 02:29:44;;;;;;;13.15;8.75;;;;;;;;;;5106364;28;20024;-85
2022/04/29 02:32:10;;;;;;;12.65;9.13;;;;;;;;;;5091687;28;20357;-85
2022/04/29 02:34:36;;;;;;;14.10;9.30;;;;;;;;;;5089727;28;20423;-84
2022/04/29 02:37:02;;;;;;;12.65;8.73;;;;;;;;;;5091304;28;20468;-85
2022/04/29 02:39:28;;;;;;;15.23;9.23;;;;;;;;;;5090800;28;20056;-85
2022/04/29 02:41:54;;;;;;;15.10;10.32;;;;;;;;;;5089304;28;20062;-85
2022/04/29 02:44:20;;;;;;;15.82;9.55;;;;;;;;;;5090118;28;20513;-85
2022/04/29 02:49:30;;;;;;;15.35;9.88;;;;;;;;;;5090372;28;20092;-85
2022/04/29 02:51:56;;;;;;;14.75;10.02;;;;;;;;;;5090117;28;20062;-87
2022/04/29 02:54:22;;;;;;;12.57;9.02;;;;;;;;;;5090635;28;20035;-85
2022/04/29 02:56:50;;;;;;;14.20;9.43;;;;;;;;;;5090773;28;20031;-86
2022/04/29 02:59:19;;;;;;;13.48;9.05;;;;;;;;;;5090208;28;20441;-85
2022/04/29 03:01:45;;;;;;;14.02;9.80;;;;;;;;;;5089457;28;20020;-86
2022/04/29 03:04:11;;;;;;;13.20;8.57;;;;;;;;;;5091084;28;20431;-86
2022/04/29 03:06:38;;;;;;;14.18;10.05;;;;;;;;;;5088185;28;20031;-86
2022/04/29 03:09:03;;;;;;;12.70;8.32;;;;;;;;;;5090609;28;20031;-85
2022/04/29 03:11:29;;;;;;;11.93;8.38;;;;;;;;;;5091278;28;20016;-86
2022/04/29 03:13:54;;;;;;;12.52;8.02;;;;;;;;;;5089802;28;20463;-85
2022/04/29 03:16:20;;;;;;;12.73;7.70;;;;;;;;;;5091059;28;20024;-84
2022/04/29 03:18:45;;;;;;;9.98;6.65;;;;;;;;;;5091185;28;20020;-87
2022/04/29 03:21:11;;;;;;;8.88;6.47;;;;;;;;;;5091327;28;20028;-88
2022/04/29 03:23:37;;;;;;;10.30;6.85;;;;;;;;;;5091806;28;20081;-83
2022/04/29 03:26:04;;;;;;;11.18;6.93;;;;;;;;;;5091015;28;20023;-89
2022/04/29 03:28:30;;;;;;;8.93;6.75;;;;;;;;;;5088891;28;20028;-85
2022/04/29 03:30:56;;;;;;;9.05;6.43;;;;;;;;;;5091069;28;20111;-86
2022/04/29 03:33:21;;;;;;;11.52;6.78;;;;;;;;;;5088895;28;20024;-87
2022/04/29 03:35:50;;;;;;;11.07;7.05;;;;;;;;;;5094285;28;20032;-86
2022/04/29 03:38:16;;;;;;;9.73;6.15;;;;;;;;;;5092637;28;20035;-88
2022/04/29 03:40:42;;;;;;;10.02;6.40;;;;;;;;;;5088764;28;20024;-86
2022/04/29 03:43:08;;;;;;;9.98;6.25;;;;;;;;;;5093941;28;20024;-86
2022/04/29 03:45:33;;;;;;;9.23;5.65;;;;;;;;;;5094366;28;20095;-87
2022/04/29 03:47:59;;;;;;;9.10;5.93;;;;;;;;;;5094715;28;20479;-86
2022/04/29 03:50:27;;;;;;;8.85;5.25;;;;;;;;;;5093448;28;20032;-86
2022/04/29 03:52:57;;;;;;;8.63;5.50;;;;;;;;;;5091733;28;20020;-86
2022/04/29 03:55:25;;;;;;;8.80;5.47;;;;;;;;;;5092880;28;20035;-85
2022/04/29 03:57:53;;;;;;;8.82;6.05;;;;;;;;;;5092613;28;20031;-85
2022/04/29 04:00:19;;;;;;;8.45;5.60;;;;;;;;;;5093552;28;20036;-85
2022/04/29 04:02:45;;;;;;;7.75;5.43;;;;;;;;;;5090948;28;20012;-86
2022/04/29 04:05:11;;;;;;;7.38;5.85;;;;;;;;;;5093437;28;20111;-88
2022/04/29 04:07:37;;;;;;;11.38;6.18;;;;;;;;;;5094440;28;20023;-85
2022/04/29 04:10:04;;;;;;;9.38;6.75;;;;;;;;;;5105604;28;20046;-84
2022/04/29 04:12:42;;;;;;;11.15;6.65;;;;;;;;;;5093706;28;20081;-83
2022/04/29 04:15:09;;;;;;;8.63;6.03;;;;;;;;;;5091939;28;20027;-82
2022/04/29 04:17:36;;;;;;;10.77;7.03;;;;;;;;;;5092371;28;20024;-84
2022/04/29 04:20:02;;;;;;;11.07;7.60;;;;;;;;;;5087362;28;20117;-83
2022/04/29 04:22:28;;;;;;;10.15;6.70;;;;;;;;;;5090864;28;20027;-85
2022/04/29 04:24:54;;;;;;;11.32;7.28;;;;;;;;;;5093788;28;20020;-86
2022/04/29 04:27:19;;;;;;;9.43;6.57;;;;;;;;;;5093886;28;20024;-84
2022/04/29 04:29:45;;;;;;;13.35;8.95;;;;;;;;;;5092623;28;20510;-85
2022/04/29 04:32:10;;;;;;;12.52;8.20;;;;;;;;;;5092717;28;20055;-85
2022/04/29 04:34:51;;;;;;;11.65;7.57;;;;;;;;;;5092288;28;20024;-86
2022/04/29 04:37:21;;;;;;;12.20;8.80;;;;;;;;;;5092079;28;20024;-81
2022/04/29 04:39:46;;;;;;;;;;;;;;;;;;5093051;28;20051;-86
2022/04/29 04:42:12;;;;;;;13.57;7.97;;;;;;;;;;5093700;28;19995;-84
2022/04/29 04:44:41;;;;;;;16.05;8.40;;;;;;;;;;5092735;28;20027;-85
2022/04/29 04:47:08;;;;;;;12.27;8.10;;;;;;;;;;5091872;28;20468;-87
2022/04/29 04:49:34;;;;;;;12.77;8.18;;;;;;;;;;5092039;28;20030;-84
2022/04/29 04:52:00;;;;;;;10.88;7.20;;;;;;;;;;5092993;28;20032;-88
2022/04/29 04:54:26;;;;;;;11.30;7.82;;;;;;;;;;5092217;28;20031;-87
2022/04/29 04:56:51;;;;;;;12.20;7.63;;;;;;;;;;5093234;28;20038;-88
2022/04/29 04:59:17;;;;;;;9.70;6.97;;;;;;;;;;5090562;28;20051;-88
2022/04/29 05:01:42;;;;;;;10.75;7.07;;;;;;;;;;5092348;28;20016;-86
2022/04/29 05:04:08;;;;;;;12.45;8.65;;;;;;;;;;5092489;28;20388;-89
2022/04/29 05:06:36;;;;;;;13.07;9.10;;;;;;;;;;5092044;28;20024;-86
2022/04/29 05:09:02;;;;;;;13.48;9.27;;;;;;;;;;5091760;28;20460;-85
2022/04/29 05:11:28;;;;;;;12.32;9.52;;;;;;;;;;5091452;28;20541;-86
2022/04/29 05:13:53;;;;;;;16.05;10.18;;;;;;;;;;5091966;28;20107;-88
2022/04/29 05:16:19;;;;;;;13.52;8.98;;;;;;;;;;5089099;28;20024;-89
2022/04/29 05:18:44;;;;;;;14.20;9.15;;;;;;;;;;5092083;28;20027;-84
2022/04/29 05:21:10;;;;;;;14.90;9.55;;;;;;;;;;5091680;28;20027;-87
2022/04/29 05:23:36;;;;;;;13.25;8.48;;;;;;;;;;5093014;28;20099;-88
2022/04/29 05:26:02;;;;;;;14.57;9.30;;;;;;;;;;5080653;28;20032;-85
2022/04/29 05:28:28;;;;;;;13.70;9.15;;;;;;;;;;5093164;28;20086;-84
2022/04/29 05:30:54;;;;;;;15.77;10.55;;;;;;;;;;5107587;28;20032;-88
2022/04/29 05:33:19;;;;;;;12.38;8.23;;;;;;;;;;5092765;28;20103;-84
2022/04/29 05:35:45;;;;;;;13.00;8.90;;;;;;;;;;5093382;28;20043;-87
2022/04/29 05:38:10;;;;;;;15.60;10.18;;;;;;;;;;5091471;28;20023;-87
2022/04/29 05:43:20;;;;;;;16.20;8.98;;;;;;;;;;5093050;28;20051;-88
2022/04/29 05:45:47;;;;;;;15.65;10.07;;;;;;;;;;5082892;28;20062;-87
2022/04/29 05:48:13;;;;;;;15.57;10.93;;;;;;;;;;5091450;28;20472;-87
2022/04/29 05:50:38;;;;;;;15.07;9.85;;;;;;;;;;5091977;28;20650;-87
2022/04/29 05:53:04;;;;;;;17.02;10.90;;;;;;;;;;5092401;28;20020;-83
2022/04/29 05:55:29;;;;;;;15.95;9.77;;;;;;;;;;5092270;28;20024;-86
2022/04/29 05:57:54;;;;;;;14.57;9.15;;;;;;;;;;5091572;28;20468;-86
2022/04/29 06:00:20;;;;;;;13.68;9.50;;;;;;;;;;5091297;28;20700;-87
2022/04/29 06:02:47;;;;;;;10.55;8.25;;;;;;;;;;5092387;28;20026;-85
2022/04/29 06:05:13;;;;;;;17.90;10.00;;;;;;;;;;5091266;28;20036;-86
2022/04/29 06:07:41;;;;;;;15.48;11.27;;;;;;;;;;5087927;28;20436;-84
2022/04/29 06:10:08;;;;;;;13.95;9.52;;;;;;;;;;5087579;28;20024;-87
2022/04/29 06:12:43;;;;;;;16.50;10.27;;;;;;;;;;5090856;28;20467;-88
2022/04/29 06:15:17;;;;;;;13.73;9.75;;;;;;;;;;5087996;28;20024;-86
2022/04/29 06:17:43;;;;;;;15.07;9.73;;;;;;;;;;5090201;28;20020;-87
2022/04/29 06:20:10;;;;;;;12.80;9.60;;;;;;;;;;5085603;28;20030;-87
2022/04/29 06:22:42;;;;;;;11.75;8.48;;;;;;;;;;5090614;28;20016;-85
2022/04/29 06:25:07;;;;;;;13.80;9.77;;;;;;;;;;5091658;28;20470;-85
2022/04/29 06:27:33;;;;;;;14.63;9.75;;;;;;;;;;5106651;28;20027;-84
2022/04/29 06:29:58;;;;;;;13.80;9.00;;;;;;;;;;5090519;28;20023;-86
2022/04/29 06:32:24;;;;;;;11.75;8.52;;;;;;;;;;5091945;28;20471;-86
2022/04/29 06:34:49;;;;;;;12.95;9.15;;;;;;;;;;5091810;28;20027;-87
2022/04/29 06:37:16;;;;;;;11.73;8.52;;;;;;;;;;5091712;28;20391;-89
2022/04/29 06:39:41;;;;;;;12.40;9.05;;;;;;;;;;5091705;28;20110;-87
2022/04/29 06:42:08;;;;;;;12.05;8.40;;;;;;;;;;5088992;28;20028;-84
2022/04/29 06:44:33;;;;;;;13.02;9.38;;;;;;;;;;5091666;28;20054;-86
2022/04/29 06:46:59;;;;;;;12.18;9.13;;;;;;;;;;5100099;28;20027;-88
2022/04/29 06:49:24;;;;;;;13.70;9.38;;;;;;;;;;5091608;28;20437;-84
2022/04/29 06:51:50;;;;;;;15.35;10.13;;;;;;;;;;5090689;28;20039;-85
2022/04/29 06:54:15;;;;;;;14.65;9.05;;;;;;;;;;5090447;28;20024;-84
2022/04/29 06:56:41;;;;;;;11.63;8.05;;;;;;;;;;5090494;28;20442;-88
2022/04/29 06:59:06;;;;;;;19.45;8.55;;;;;;;;;;5091699;28;20031;-85
2022/04/29 07:01:32;;;;;;;13.40;9.35;;;;;;;;;;5091039;28;20027;-86
2022/04/29 07:03:58;;;;;;;10.95;7.85;;;;;;;;;;5090293;28;20479;-85
2022/04/29 07:06:24;;;;;;;14.10;9.45;;;;;;;;;;5103004;28;20020;-84
2022/04/29 07:08:49;;;;;;;10.32;7.55;;;;;;;;;;5091818;28;20497;-87
2022/04/29 07:11:14;;;;;;;13.20;9.23;;;;;;;;;;5094356;28;20081;-85
2022/04/29 07:13:42;;;;;;;13.90;8.02;;;;;;;;;;5095428;28;20032;-87
2022/04/29 07:16:09;;;;;;;13.43;8.70;;;;;;;;;;5095202;28;20031;-88
2022/04/29 07:18:36;;;;;;;13.93;8.30;;;;;;;;;;5093869;28;20115;-85
2022/04/29 07:21:02;;;;;;;11.98;8.80;;;;;;;;;;5094696;28;20016;-86
2022/04/29 07:23:28;;;;;;;12.82;9.20;;;;;;;;;;5093540;28;20082;-85
2022/04/29 07:25:53;;;;;;;9.82;7.47;;;;;;;;;;5094674;28;20027;-87
2022/04/29 07:28:19;;;;;;;21.25;12.02;;;;;;;;;;5095404;28;20032;-87
2022/04/29 07:30:44;;;;;;;27.08;14.80;;;;;;;;;;5092239;28;20456;-84
2022/04/29 07:33:10;;;;;;;13.23;9.23;;;;;;;;;;5094834;28;20388;-86
2022/04/29 07:43:48;;;;;;;13.88;9.18;;;;;;;;;;5094928;28;20043;-87
2022/04/29 07:46:13;;;;;;;14.07;9.00;;;;;;;;;;5110491;28;20416;-86
2022/04/29 07:48:39;;;;;;;13.15;9.38;;;;;;;;;;5094064;28;20467;-85
2022/04/29 07:51:06;;;;;;;17.58;11.82;;;;;;;;;;5093782;28;20036;-82
2022/04/29 07:53:31;;;;;;;22.65;12.80;;;;;;;;;;5090061;28;20038;-86
2022/04/29 07:55:57;;;;;;;16.48;11.30;;;;;;;;;;5090872;28;20028;-86
2022/04/29 07:58:22;;;;;;;10.48;8.02;;;;;;;;;;5086944;28;20039;-84
2022/04/29 08:00:48;;;;;;;11.02;8.52;;;;;;;;;;5080627;28;20380;-86
2022/04/29 08:03:14;;;;;;;13.10;8.80;;;;;;;;;;5094732;28;20111;-86
2022/04/29 08:05:39;;;;;;;20.45;12.88;;;;;;;;;;5086529;28;20028;-85
2022/04/29 08:08:05;;;;;;;13.57;9.43;;;;;;;;;;5094264;28;20032;-85
2022/04/29 08:10:32;;;;;;;19.58;12.82;;;;;;;;;;5093055;28;20154;-85
2022/04/29 08:12:58;;;;;;;28.55;16.88;;;;;;;;;;5092397;28;20021;-85
2022/04/29 08:15:27;;;;;;;17.88;11.45;;;;;;;;;;5093122;28;20027;-85
2022/04/29 08:17:53;;;;;;;15.63;10.37;;;;;;;;;;5093149;28;20458;-85
2022/04/29 08:20:19;;;;;;;25.25;15.77;;;;;;;;;;5088613;28;20166;-85
2022/04/29 08:22:45;;;;;;;14.05;9.45;;;;;;;;;;5089534;28;20099;-88
2022/04/29 08:25:10;;;;;;;13.57;9.77;;;;;;;;;;5093123;28;20111;-88
2022/04/29 08:27:36;;;;;;;18.85;11.15;;;;;;;;;;5092210;28;20032;-87
2022/04/29 08:30:06;;;;;;;13.45;9.43;;;;;;;;;;5090957;28;20024;-86
2022/04/29 08:32:43;;;;;;;12.35;8.68;;;;;;;;;;5092987;28;20480;-88
2022/04/29 08:35:10;;;;;;;13.65;9.18;;;;;;;;;;5089721;28;20027;-86
2022/04/29 08:37:39;;;;;;;12.77;8.52;;;;;;;;;;5092442;28;20393;-87
2022/04/29 08:40:06;;;;;;;11.57;8.52;;;;;;;;;;5092347;28;20044;-85
2022/04/29 08:42:37;;;;;;;10.77;8.23;;;;;;;;;;5093760;28;20024;-87
2022/04/29 08:45:26;;;;;;;11.32;7.65;;;;;;;;;;5091993;28;20051;-88
2022/04/29 08:47:51;;;;;;;11.52;7.95;;;;;;;;;;5105658;28;20065;-88
2022/04/29 08:50:19;;;;;;;9.95;7.15;;;;;;;;;;5092799;28;20063;-88
2022/04/29 08:52:45;;;;;;;9.50;6.97;;;;;;;;;;5094007;28;20104;-86
2022/04/29 09:00:41;;;;;;;10.18;7.25;;;;;;;;;;5091068;28;20086;-84
2022/04/29 09:03:25;;;;;;;9.75;6.70;;;;;;;;;;5093251;28;20027;-85
2022/04/29 09:05:51;;;;;;;10.43;7.47;;;;;;;;;;5093622;28;20062;-86
2022/04/29 09:08:19;;;;;;;15.38;8.82;;;;;;;;;;5092930;28;20051;-86
2022/04/29 09:10:49;;;;;;;10.65;7.43;;;;;;;;;;5091812;28;20028;-86
2022/04/29 09:13:19;;;;;;;8.70;6.50;;;;;;;;;;5092903;28;20502;-88
2022/04/29 09:16:10;;;;;;;8.45;6.78;;;;;;;;;;5092156;28;20054;-86
2022/04/29 09:18:48;;;;;;;11.00;6.65;;;;;;;;;;5074658;28;20035;-87
2022/04/29 09:21:17;;;;;;;8.32;6.10;;;;;;;;;;5091814;28;20111;-87
2022/04/29 09:23:45;;;;;;;10.05;7.10;;;;;;;;;;5087588;28;20418;-86
2022/04/29 09:26:21;;;;;;;10.38;7.15;;;;;;;;;;5093224;28;20047;-86
2022/04/29 09:28:47;;;;;;;9.65;7.20;;;;;;;;;;5092632;28;20028;-87
2022/04/29 09:31:14;;;;;;;11.27;6.80;;;;;;;;;;5090854;28;20039;-88
2022/04/29 09:33:40;;;;;;;10.73;7.35;;;;;;;;;;5086942;28;20368;-86
2022/04/29 09:36:06;;;;;;;9.70;6.72;;;;;;;;;;5093411;28;20027;-88
2022/04/29 09:41:23;;;;;;;11.10;7.32;;;;;;;;;;5068024;28;20051;-87
2022/04/29 09:43:49;;;;;;;10.23;7.03;;;;;;;;;;5092285;28;20028;-88
2022/04/29 09:46:27;;;;;;;9.80;7.00;;;;;;;;;;5092950;28;20495;-85
2022/04/29 09:49:11;;;;;;;10.25;6.90;;;;;;;;;;5104883;28;20365;-87
2022/04/29 09:51:51;;;;;;;8.90;6.57;;;;;;;;;;5087854;28;20379;-86
2022/04/29 09:54:22;;;;;;;;;;;;;;;;;;5092661;28;20549;-86
2022/04/29 09:57:06;;;;;;;9.32;7.10;;;;;;;;;;5092927;28;19912;-85
2022/04/29 09:59:42;;;;;;;8.98;6.75;;;;;;;;;;5091057;28;20055;-87
2022/04/29 10:02:10;;;;;;;9.75;6.57;;;;;;;;;;5092226;28;20016;-87
2022/04/29 10:04:41;;;;;;;9.02;6.22;;;;;;;;;;5091268;28;20024;-86
2022/04/29 10:07:09;;;;;;;9.75;7.07;;;;;;;;;;5088054;28;20480;-86
2022/04/29 10:09:36;;;;;;;9.43;6.40;;;;;;;;;;5091125;28;20039;-87
2022/04/29 10:12:15;;;;;;;10.65;6.90;;;;;;;;;;5092649;28;20024;-87
2022/04/29 10:14:42;;;;;;;8.23;6.63;;;;;;;;;;5090286;28;20036;-85
2022/04/29 10:22:51;;;;;;;9.88;7.30;;;;;;;;;;5090933;28;20039;-87
2022/04/29 10:25:20;;;;;;;14.05;6.70;;;;;;;;;;5090921;28;20042;-87
2022/04/29 10:27:48;;;;;;;9.68;7.32;;;;;;;;;;5092263;28;20471;-86
2022/04/29 10:30:15;;;;;;;7.70;6.68;;;;;;;;;;5090687;28;20024;-87
2022/04/29 10:33:12;;;;;;;9.45;6.82;;;;;;;;;;5091272;28;20031;-85
2022/04/29 10:35:45;;;;;;;8.10;6.47;;;;;;;;;;5078900;28;20131;-86
2022/04/29 10:38:18;;;;;;;8.20;6.40;;;;;;;;;;5082669;28;20024;-86
2022/04/29 10:40:45;;;;;;;8.02;6.03;;;;;;;;;;5091740;28;20020;-87
2022/04/29 10:43:14;;;;;;;8.85;6.70;;;;;;;;;;5089622;28;20024;-86
2022/04/29 10:46:01;;;;;;;10.73;6.70;;;;;;;;;;5097044;28;20027;-85
2022/04/29 10:48:37;;;;;;;8.40;6.53;;;;;;;;;;5097951;28;20020;-85
2022/04/29 10:51:24;;;;;;;8.32;6.40;;;;;;;;;;5097070;28;20052;-85
2022/04/29 10:53:53;;;;;;;9.65;6.25;;;;;;;;;;5113429;28;20035;-86
2022/04/29 10:56:31;;;;;;;8.15;6.57;;;;;;;;;;5095752;28;20034;-85
2022/04/29 10:59:11;;;;;;;8.48;6.75;;;;;;;;;;5112493;28;20107;-86
2022/04/29 11:01:39;;;;;;;12.10;8.68;;;;;;;;;;5096970;28;20016;-86
2022/04/29 11:04:05;;;;;;;9.20;7.50;;;;;;;;;;5097470;28;20028;-88
2022/04/29 11:06:44;;;;;;;9.90;7.78;;;;;;;;;;5095543;28;20372;-88
2022/04/29 11:09:46;;;;;;;10.85;7.38;;;;;;;;;;5093209;28;20380;-86
2022/04/29 11:12:42;;;;;;;8.95;7.10;;;;;;;;;;5095214;28;20365;-84
2022/04/29 11:15:15;;;;;;;8.90;6.63;;;;;;;;;;5089280;28;20035;-85
2022/04/29 11:17:41;;;;;;;10.45;7.30;;;;;;;;;;5096250;28;20035;-83
2022/04/29 11:20:17;;;;;;;10.27;8.25;;;;;;;;;;5093353;28;20032;-85
2022/04/29 11:25:50;;;;;;;8.48;6.72;;;;;;;;;;5096118;28;20414;-86
2022/04/29 11:28:17;;;;;;;11.52;7.18;;;;;;;;;;5112111;28;20116;-85
2022/04/29 11:30:43;;;;;;;10.98;7.05;;;;;;;;;;5097305;28;20020;-84
2022/04/29 11:33:09;;;;;;;8.90;6.65;;;;;;;;;;5091259;28;20039;-84
2022/04/29 11:35:34;;;;;;;9.05;6.90;;;;;;;;;;5096646;28;20446;-82
2022/04/29 11:38:00;;;;;;;10.43;7.80;;;;;;;;;;5097440;28;20379;-86
2022/04/29 11:40:29;;;;;;;9.20;7.50;;;;;;;;;;5059389;28;20044;-83
2022/04/29 11:42:54;;;;;;;10.32;6.88;;;;;;;;;;5058610;28;20106;-84
2022/04/29 11:45:24;;;;;;;8.93;6.82;;;;;;;;;;5075471;28;20407;-83
2022/04/29 11:48:05;;;;;;;8.65;7.00;;;;;;;;;;5077401;28;20108;-83
2022/04/29 11:50:35;;;;;;;9.63;7.25;;;;;;;;;;5059334;28;20528;-89
2022/04/29 11:53:13;;;;;;;8.57;6.70;;;;;;;;;;5059282;28;20032;-89
2022/04/29 11:55:39;;;;;;;10.68;7.07;;;;;;;;;;5056546;28;20056;-85
2022/04/29 11:58:05;;;;;;;9.15;7.47;;;;;;;;;;5074057;28;20063;-85
2022/04/29 12:00:33;;;;;;;12.85;7.93;;;;;;;;;;5074248;28;20039;-87
2022/04/29 12:03:00;;;;;;;11.68;7.40;;;;;;;;;;5065639;28;20021;-85
2022/04/29 12:05:27;;;;;;;12.60;7.45;;;;;;;;;;5055868;28;20405;-85
2022/04/29 12:07:53;;;;;;;11.38;7.18;;;;;;;;;;5055199;28;20036;-86
2022/04/29 12:10:22;;;;;;;9.45;6.43;;;;;;;;;;5073848;28;20106;-86
2022/04/29 12:12:48;;;;;;;8.70;6.68;;;;;;;;;;5055867;28;20021;-87
2022/04/29 12:15:24;;;;;;;8.07;6.47;;;;;;;;;;5073427;28;20028;-85
2022/04/29 12:17:49;;;;;;;9.05;7.13;;;;;;;;;;5073231;28;20476;-84
2022/04/29 12:20:18;;;;;;;8.52;6.82;;;;;;;;;;5073347;28;20020;-88
2022/04/29 12:22:44;;;;;;;8.98;7.13;;;;;;;;;;5072861;28;20028;-84
2022/04/29 12:25:24;;;;;;;8.05;6.35;;;;;;;;;;5073589;28;20031;-86
2022/04/29 12:28:12;;;;;;;8.10;6.68;;;;;;;;;;5047783;28;20055;-85
2022/04/29 12:36:08;;;;;;;7.63;6.03;;;;;;;;;;5071498;28;20388;-84
2022/04/29 12:38:36;;;;;;;10.40;6.75;;;;;;;;;;5055369;28;20040;-84
2022/04/29 12:41:34;;;;;;;6.75;5.78;;;;;;;;;;5073139;28;20142;-85
2022/04/29 12:45:03;;;;;;;8.10;6.68;;;;;;;;;;5039232;28;20133;-87
2022/04/29 12:47:01;;;;;;;8.70;6.95;;;;;;;;;;5072966;28;20171;-84
2022/04/29 12:49:27;;;;;;;7.13;5.93;;;;;;;;;;5072879;28;20117;-85
2022/04/29 12:52:00;;;;;;;8.30;6.40;;;;;;;;;;5072378;28;20067;-85
2022/04/29 12:54:27;;;;;;;8.77;6.93;;;;;;;;;;5084444;28;20059;-85
2022/04/29 12:56:53;;;;;;;12.70;7.00;;;;;;;;;;5081509;28;20476;-86
2022/04/29 12:59:23;;;;;;;10.25;6.93;;;;;;;;;;5078208;28;20027;-84
2022/04/29 13:01:49;;;;;;;7.85;5.80;;;;;;;;;;5073884;28;20086;-85
2022/04/29 13:04:14;;;;;;;7.72;6.22;;;;;;;;;;5079494;28;20118;-85
2022/04/29 13:06:40;;;;;;;19.30;11.43;;;;;;;;;;5074741;28;20480;-87
2022/04/29 13:09:05;;;;;;;11.95;9.02;;;;;;;;;;5073811;28;20028;-87
2022/04/29 13:11:32;;;;;;;10.73;7.65;;;;;;;;;;5072744;28;20052;-85
2022/04/29 13:13:58;;;;;;;10.10;6.85;;;;;;;;;;5078156;28;20021;-83
2022/04/29 13:16:25;;;;;;;9.00;7.10;;;;;;;;;;5048725;28;20024;-83
2022/04/29 13:18:51;;;;;;;9.80;7.40;;;;;;;;;;5073935;28;20493;-85
2022/04/29 13:21:17;;;;;;;10.43;7.22;;;;;;;;;;5054581;28;20021;-85
2022/04/29 13:23:45;;;;;;;8.85;6.78;;;;;;;;;;5074431;28;20100;-84
2022/04/29 13:26:13;;;;;;;17.95;11.23;;;;;;;;;;5067644;28;20101;-83
2022/04/29 13:28:38;;;;;;;18.17;11.98;;;;;;;;;;5080883;28;20445;-85
2022/04/29 13:31:05;;;;;;;13.07;10.10;;;;;;;;;;5077912;28;20150;-86
2022/04/29 13:33:32;;;;;;;32.33;18.92;;;;;;;;;;5078129;28;20045;-86
2022/04/29 13:35:57;;;;;;;13.52;10.40;;;;;;;;;;5078988;28;20020;-86
2022/04/29 13:38:23;;;;;;;12.00;8.15;;;;;;;;;;5061764;28;20052;-84
2022/04/29 13:40:50;;;;;;;10.65;8.65;;;;;;;;;;5092045;28;20116;-85
2022/04/29 13:43:16;;;;;;;26.42;15.48;;;;;;;;;;5091232;28;20078;-86
2022/04/29 13:45:44;;;;;;;25.00;16.75;;;;;;;;;;5091440;28;20024;-87
2022/04/29 13:48:17;;;;;;;23.48;15.13;;;;;;;;;;5084646;28;20919;-86
2022/04/29 13:50:43;;;;;;;16.52;10.35;;;;;;;;;;5110068;28;20434;-87
2022/04/29 13:53:14;;;;;;;15.77;10.88;;;;;;;;;;5093653;28;20484;-85
2022/04/29 13:55:47;;;;;;;16.23;10.02;;;;;;;;;;5092616;28;20038;-85
2022/04/29 13:58:14;;;;;;;14.55;10.38;;;;;;;;;;5112330;28;20388;-86
2022/04/29 14:00:44;;;;;;;30.70;20.10;;;;;;;;;;5111833;28;20032;-86
2022/04/29 14:03:17;;;;;;;22.95;13.85;;;;;;;;;;5111519;28;20015;-84
2022/04/29 14:05:42;;;;;;;19.15;13.60;;;;;;;;;;5112037;28;20035;-84
2022/04/29 14:08:08;;;;;;;10.95;8.35;;;;;;;;;;5092918;28;20027;-83
2022/04/29 14:10:34;;;;;;;11.77;7.93;;;;;;;;;;5112044;28;20047;-87
2022/04/29 14:13:00;;;;;;;13.18;8.32;;;;;;;;;;5110975;28;20119;-83
2022/04/29 14:15:27;;;;;;;14.15;8.85;;;;;;;;;;5111229;28;20424;-86
2022/04/29 14:17:52;;;;;;;13.77;9.02;;;;;;;;;;5111299;28;20047;-84
2022/04/29 14:20:18;;;;;;;10.02;7.82;;;;;;;;;;5110942;28;20071;-85
2022/04/29 14:22:44;;;;;;;13.45;9.50;;;;;;;;;;5091620;28;20028;-83
2022/04/29 14:25:11;;;;;;;12.38;9.23;;;;;;;;;;5092720;28;20487;-85
2022/04/29 14:27:38;;;;;;;12.73;9.07;;;;;;;;;;5092305;28;20478;-83
2022/04/29 14:30:05;;;;;;;21.73;8.43;;;;;;;;;;5090329;28;20015;-82
2022/04/29 14:32:32;;;;;;;14.13;9.13;;;;;;;;;;5110970;28;20027;-85
2022/04/29 14:34:58;;;;;;;17.70;9.02;;;;;;;;;;5111082;28;20042;-86
2022/04/29 14:37:26;;;;;;;13.60;10.13;;;;;;;;;;5110744;28;20030;-83
2022/04/29 14:39:55;;;;;;;14.75;8.70;;;;;;;;;;5110911;28;20392;-85
2022/04/29 14:42:21;;;;;;;14.85;9.40;;;;;;;;;;5109988;28;20022;-84
2022/04/29 14:44:47;;;;;;;12.85;9.60;;;;;;;;;;5111408;28;20107;-83
2022/04/29 14:47:12;;;;;;;21.58;13.02;;;;;;;;;;5093069;28;20084;-83
2022/04/29 14:49:38;;;;;;;14.93;10.32;;;;;;;;;;5093195;28;20038;-84
2022/04/29 14:52:04;;;;;;;13.85;10.13;;;;;;;;;;5092367;28;20448;-86
2022/04/29 14:54:30;;;;;;;14.05;9.55;;;;;;;;;;5111453;28;20051;-84
2022/04/29 14:56:55;;;;;;;11.43;9.27;;;;;;;;;;5109784;28;20027;-85
2022/04/29 14:59:21;;;;;;;13.07;9.35;;;;;;;;;;5111096;28;20036;-88
2022/04/29 15:01:47;;;;;;;14.25;11.13;;;;;;;;;;5094118;28;20031;-82
2022/04/29 15:04:13;;;;;;;16.67;10.00;;;;;;;;;;5111668;28;20027;-86
2022/04/29 15:06:39;;;;;;;16.13;10.75;;;;;;;;;;5092379;28;20019;-86
2022/04/29 15:17:23;;;;;;;14.43;10.40;;;;;;;;;;5111124;28;20101;-84
2022/04/29 15:19:49;;;;;;;13.60;9.52;;;;;;;;;;5092800;28;20028;-84